Terminal Aerodrome Forecast
Issued by NWS

Home | Current Version | Previous Version | Text Only | Print | Product List | Glossary On
Versions: 1 2 3 4 5 6 7 8 9 10 11 12 13 14 15 16 17 18 19 20
000
FTUS44 KLZK 242300
TAFLLQ
TAF
KLLQ 242330Z 2500/2524 09005KT 5SM TSRA BR OVC015CB
      TEMPO 2500/2504 09015G25KT 2SM TSRA BR OVC005CB
     FM250600 20008KT 5SM BR VCTS OVC009CB WS020/22040KT
     FM251500 22010G20KT P6SM SCT015
     FM252100 25010G20KT P6SM SKC=

USA.gov is the U.S. government's official web portal to all federal, state and local government web resources and services.